Time;durP1;ratioP1;P1;durP2;ratioP2;P2;SDS_P1;SDS_P2;PMS_P1;PMS_P2;Temp;Humidity;BMP_temperature;BMP_pressure;BME280_temperature;BME280_humidity;BME280_pressure;Samples;Min_cycle;Max_cycle;Signal;HPM_P1;HPM_P2
2022/01/19 00:11:22;;;;;;;41.37;25.10;;;;;;;;;;10737808;27;20338;-60
2022/01/19 00:31:09;;;;;;;38.23;24.93;;;;;;;;;;10737966;27;20697;-55
2022/01/19 00:36:12;;;;;;;44.87;24.77;;;;;;;;;;10674919;27;20204;-57
2022/01/19 00:41:14;;;;;;;34.57;22.20;;;;;;;;;;10693894;27;20184;-54
2022/01/19 00:56:06;;;;;;;28.80;15.87;;;;;;;;;;10737906;27;20340;-57
2022/01/19 01:26:09;;;;;;;22.63;14.20;;;;;;;;;;10737211;27;20335;-62
2022/01/19 01:41:01;;;;;;;38.43;20.57;;;;;;;;;;10693907;27;20311;-59
2022/01/19 01:55:54;;;;;;;33.37;18.40;;;;;;;;;;10737721;27;20362;-58
2022/01/19 02:00:57;;;;;;;32.57;17.50;;;;;;;;;;10674973;27;20948;-56
2022/01/19 02:06:20;;;;;;;26.73;16.57;;;;;;;;;;10693786;27;20214;-59
2022/01/19 02:26:26;;;;;;;27.47;14.83;;;;;;;;;;10693966;27;20323;-59
2022/01/19 02:36:33;;;;;;;28.27;15.83;;;;;;;;;;10632401;27;20239;-57
2022/01/19 03:18:04;;;;;;;33.40;15.70;;;;;;;;;;10693740;27;20311;-58
2022/01/19 03:28:01;;;;;;;25.90;13.97;;;;;;;;;;10694016;27;20541;-57
2022/01/19 03:33:04;;;;;;;26.27;13.37;;;;;;;;;;10631982;27;20188;-58
2022/01/19 03:52:51;;;;;;;24.70;13.87;;;;;;;;;;10693902;27;20315;-61
2022/01/19 04:02:49;;;;;;;31.23;15.40;;;;;;;;;;10737672;27;20567;-55
2022/01/19 04:12:53;;;;;;;31.07;14.63;;;;;;;;;;10737917;27;20564;-56
2022/01/19 04:32:45;;;;;;;22.77;14.53;;;;;;;;;;10738365;27;20699;-54
2022/01/19 04:48:10;;;;;;;28.27;17.50;;;;;;;;;;10694145;27;20319;-58
2022/01/19 05:03:16;;;;;;;33.63;18.63;;;;;;;;;;10714441;27;20295;-54
2022/01/19 05:13:33;;;;;;;36.00;18.23;;;;;;;;;;10693500;27;20311;-55
2022/01/19 05:28:26;;;;;;;27.63;16.73;;;;;;;;;;10738063;27;20344;-54
2022/01/19 05:43:18;;;;;;;29.00;16.37;;;;;;;;;;10694529;27;20351;-54
2022/01/19 05:58:11;;;;;;;23.50;14.37;;;;;;;;;;10735782;27;20350;-53
2022/01/19 06:08:18;;;;;;;25.70;14.63;;;;;;;;;;10665541;27;20316;-53
2022/01/19 06:18:28;;;;;;;24.90;14.40;;;;;;;;;;10670675;27;21115;-54
2022/01/19 06:28:25;;;;;;;21.07;14.20;;;;;;;;;;10640477;27;20563;-54
2022/01/19 06:33:28;;;;;;;23.27;15.20;;;;;;;;;;10607666;27;20197;-55
2022/01/19 06:38:31;;;;;;;25.10;13.80;;;;;;;;;;10615007;27;20232;-54
2022/01/19 06:53:32;;;;;;;27.73;14.87;;;;;;;;;;10735250;27;20338;-54
2022/01/19 06:58:42;;;;;;;19.47;13.33;;;;;;;;;;10698341;22;20250;-56
2022/01/19 07:04:14;;;;;;;19.80;12.97;;;;;;;;;;10532877;28;20275;-55
2022/01/19 07:14:12;;;;;;;20.87;13.03;;;;;;;;;;10733090;27;20343;-56
2022/01/19 07:29:05;;;;;;;19.40;13.07;;;;;;;;;;10643455;27;20649;-56
2022/01/19 07:39:03;;;;;;;25.80;14.03;;;;;;;;;;10707314;27;20797;-57
2022/01/19 07:44:06;;;;;;;18.53;13.23;;;;;;;;;;10630990;27;20634;-58
2022/01/19 07:49:27;;;;;;;21.60;13.27;;;;;;;;;;10686165;27;20188;-60
2022/01/19 08:14:30;;;;;;;23.30;15.13;;;;;;;;;;10735438;27;20335;-54
2022/01/19 08:19:33;;;;;;;20.47;15.23;;;;;;;;;;10673189;27;20192;-57
2022/01/19 08:24:37;;;;;;;22.53;15.67;;;;;;;;;;10671060;27;20575;-56
2022/01/19 08:34:40;;;;;;;22.87;15.40;;;;;;;;;;10691340;27;21065;-56
2022/01/19 08:45:04;;;;;;;22.70;15.77;;;;;;;;;;10668155;27;20316;-56
2022/01/19 09:14:41;;;;;;;22.90;16.83;;;;;;;;;;10657049;27;20643;-55
2022/01/19 09:24:40;;;;;;;23.47;16.87;;;;;;;;;;10692666;27;20862;-55
2022/01/19 09:34:39;;;;;;;24.93;17.40;;;;;;;;;;10713872;27;20278;-56
2022/01/19 09:44:37;;;;;;;24.27;16.90;;;;;;;;;;10614214;27;20543;-57
2022/01/19 09:59:29;;;;;;;24.57;17.43;;;;;;;;;;10735085;27;20358;-57
2022/01/19 10:19:45;;;;;;;23.03;17.33;;;;;;;;;;10648406;27;20188;-56
2022/01/19 10:24:52;;;;;;;28.80;19.23;;;;;;;;;;10647943;27;20668;-56
2022/01/19 10:34:49;;;;;;;29.33;20.03;;;;;;;;;;10666588;27;20319;-57
2022/01/19 10:39:54;;;;;;;27.63;18.63;;;;;;;;;;10628135;27;20193;-57
2022/01/19 10:49:53;;;;;;;23.87;19.33;;;;;;;;;;10670399;27;20997;-58
2022/01/19 10:54:57;;;;;;;29.97;20.07;;;;;;;;;;10647700;27;20223;-56
2022/01/19 11:00:13;;;;;;;28.53;19.87;;;;;;;;;;10648055;27;20202;-57
2022/01/19 11:15:06;;;;;;;25.63;17.87;;;;;;;;;;10693143;27;20356;-57
2022/01/19 11:25:23;;;;;;;24.87;16.97;;;;;;;;;;10692306;27;20541;-57
2022/01/19 11:30:47;;;;;;;20.73;16.90;;;;;;;;;;10610175;27;20220;-57
2022/01/19 11:40:44;;;;;;;24.20;18.57;;;;;;;;;;10735776;27;20585;-58
2022/01/19 11:45:47;;;;;;;23.10;18.83;;;;;;;;;;10687307;27;20196;-58
2022/01/19 11:56:04;;;;;;;23.53;18.90;;;;;;;;;;10735254;27;20339;-58
2022/01/19 12:15:58;;;;;;;30.77;22.73;;;;;;;;;;10715028;27;20361;-62
2022/01/19 12:25:57;;;;;;;28.33;23.73;;;;;;;;;;10708920;27;20356;-58
2022/01/19 12:35:54;;;;;;;27.03;20.73;;;;;;;;;;10666357;27;20534;-57
2022/01/19 12:45:56;;;;;;;30.37;23.47;;;;;;;;;;10698814;27;20352;-57
2022/01/19 12:55:57;;;;;;;30.37;23.00;;;;;;;;;;10666898;27;20534;-59
2022/01/19 13:06:01;;;;;;;33.13;26.67;;;;;;;;;;10700227;27;20347;-54
2022/01/19 13:11:18;;;;;;;33.83;26.23;;;;;;;;;;10668728;27;20199;-53
2022/01/19 13:21:17;;;;;;;37.07;26.50;;;;;;;;;;10728183;27;20591;-54
2022/01/19 13:31:19;;;;;;;34.97;27.07;;;;;;;;;;10696819;27;21103;-55
2022/01/19 13:41:16;;;;;;;36.00;25.10;;;;;;;;;;10666621;27;20542;-54
2022/01/19 13:46:24;;;;;;;37.83;27.70;;;;;;;;;;10605670;28;20196;-55
2022/01/19 13:51:29;;;;;;;38.03;27.17;;;;;;;;;;10604456;28;20196;-54
2022/01/19 14:01:37;;;;;;;30.17;24.23;;;;;;;;;;10659078;27;20538;-55
2022/01/19 14:06:48;;;;;;;45.83;32.47;;;;;;;;;;10604633;28;20196;-57
2022/01/19 14:11:58;;;;;;;31.80;25.70;;;;;;;;;;10605031;27;20631;-55
2022/01/19 14:17:01;;;;;;;39.33;29.40;;;;;;;;;;10655583;27;20692;-54
2022/01/19 14:22:08;;;;;;;37.00;27.13;;;;;;;;;;10681612;27;20672;-55
2022/01/19 14:27:12;;;;;;;37.60;28.43;;;;;;;;;;10690117;27;20275;-55
2022/01/19 14:32:15;;;;;;;37.70;26.07;;;;;;;;;;10610872;27;20350;-55
2022/01/19 14:42:12;;;;;;;39.70;29.70;;;;;;;;;;10736946;27;20573;-54
2022/01/19 14:47:47;;;;;;;35.03;27.73;;;;;;;;;;10692593;27;20573;-54
2022/01/19 14:52:51;;;;;;;31.10;24.57;;;;;;;;;;10608640;27;20204;-55
2022/01/19 14:57:53;;;;;;;40.87;28.17;;;;;;;;;;10691393;27;20220;-54
2022/01/19 15:02:59;;;;;;;26.23;22.53;;;;;;;;;;10693002;27;20202;-54
2022/01/19 15:12:58;;;;;;;33.10;24.07;;;;;;;;;;10737979;27;20336;-54
2022/01/19 15:18:02;;;;;;;26.53;21.83;;;;;;;;;;10694355;27;20253;-54
2022/01/19 15:32:54;;;;;;;27.73;23.23;;;;;;;;;;10737856;27;20332;-55
2022/01/19 15:42:52;;;;;;;27.93;21.23;;;;;;;;;;10693922;27;20537;-54
2022/01/19 15:52:49;;;;;;;33.57;25.90;;;;;;;;;;10738030;27;20556;-53
2022/01/19 16:07:41;;;;;;;26.63;21.40;;;;;;;;;;10694333;27;20315;-54
2022/01/19 16:12:44;;;;;;;29.90;23.50;;;;;;;;;;10650789;27;20288;-53
2022/01/19 16:17:46;;;;;;;36.03;26.97;;;;;;;;;;10650533;27;20181;-55
2022/01/19 16:27:43;;;;;;;31.17;24.53;;;;;;;;;;10725394;27;20342;-53
2022/01/19 16:37:40;;;;;;;30.73;22.43;;;;;;;;;;10708790;27;20583;-54
2022/01/19 16:42:43;;;;;;;34.97;25.87;;;;;;;;;;10651487;27;20196;-54
2022/01/19 16:47:53;;;;;;;32.07;23.63;;;;;;;;;;10651271;27;20205;-53
2022/01/19 16:57:51;;;;;;;38.40;24.87;;;;;;;;;;10709726;27;20588;-53
2022/01/19 17:07:48;;;;;;;37.40;25.00;;;;;;;;;;10731720;27;20338;-53
2022/01/19 17:12:54;;;;;;;31.43;23.33;;;;;;;;;;10693048;27;20676;-51
2022/01/19 17:22:51;;;;;;;29.90;21.40;;;;;;;;;;10586065;27;20825;-52
2022/01/19 17:52:29;;;;;;;33.87;21.27;;;;;;;;;;10731762;27;20494;-52
2022/01/19 18:02:26;;;;;;;27.60;20.40;;;;;;;;;;10725668;27;20585;-51
2022/01/19 18:17:18;;;;;;;37.57;24.03;;;;;;;;;;10504551;27;73364;-50
2022/01/19 18:35:39;;;;;;;30.73;24.80;;;;;;;5.75;100.00;100378.53;15132065;19;66664;-50
2022/01/19 19:59:57;;;;;;;37.17;21.73;;;;;;;-0.44;100.00;100160.09;15332633;19;20478;-50
2022/01/19 20:05:02;;;;;;;36.63;22.70;;;;;;;-0.46;100.00;100151.38;15339013;19;20164;-48
2022/01/19 20:34:52;;;;;;;37.33;23.57;;;;;;;-0.75;100.00;100083.06;15331767;19;20510;-49
2022/01/19 21:24:29;;;;;;;38.13;23.70;;;;;;;-0.95;100.00;100018.00;15360203;19;20474;-49
